• Join FlightAware (Why Join?)
  • Login
  • US Flag 
11:06PM EDT


 

Airport Tracker/Info


-or-


 

Live Flight TrackerFlight Track Log ✈ RHC9808 ✈ 24-Sep-2013 ✈ ZPPP / KMG - ZPJH / JHG

Flight Track Log - Related Links

Times and Time Zones

All times are in EDT time to prevent confusion due to time zone crossing. See the RHC9808 flight status page for this flight to view local times or setup timezone preferences in your user account.

Time Position Orientation Groundspeed Altitude Reporting Facility
EDT Latitude Longitude Course Direction KTS MPH feet Rate Location/Type
07:37PM 24.5094 102.5084 213° Southwest  Level Estimated
07:38PM 24.4352 102.4561 213° Southwest  Level Estimated
07:39PM 24.3610 102.4039 213° Southwest  Level Estimated
07:40PM 24.2869 102.3517 213° Southwest  Level Estimated
07:41PM 24.2127 102.2995 213° Southwest  Level Estimated
07:42PM 24.1384 102.2475 213° Southwest  Level Estimated
07:43PM 24.0642 102.1955 213° Southwest  Level Estimated
07:44PM 23.9899 102.1435 213° Southwest  Level Estimated
07:45PM 23.9156 102.0916 213° Southwest  Level Estimated
07:46PM 23.8414 102.0398 213° Southwest  Level Estimated
07:47PM 23.7670 101.9880 213° Southwest  Level Estimated
07:48PM 23.6927 101.9363 213° Southwest  Level Estimated
07:49PM 23.6184 101.8847 212° Southwest  Level Estimated
07:50PM 23.5440 101.8331 212° Southwest  Level Estimated
07:51PM 23.4696 101.7815 212° Southwest  Level Estimated
07:52PM 23.3952 101.7301 212° Southwest  Level Estimated
07:53PM 23.3208 101.6786 212° Southwest  Level Estimated
07:54PM 23.2464 101.6273 212° Southwest  Level Estimated
07:55PM 23.1719 101.5760 212° Southwest  Level Estimated
07:56PM 23.0975 101.5247 212° Southwest  Level Estimated
07:57PM 23.0230 101.4735 212° Southwest  Level Estimated
07:58PM 22.9485 101.4224 212° Southwest  Level Estimated
07:59PM 22.8740 101.3713 212° Southwest  Level Estimated
08:00PM 22.7994 101.3203 212° Southwest  Level Estimated
08:01PM 22.7249 101.2694 212° Southwest  Level Estimated
08:02PM 22.6503 101.2185 212° Southwest  Level Estimated
08:03PM 22.5758 101.1676 212° Southwest  Level Estimated
08:04PM 22.5012 101.1168 212° Southwest  Level Estimated
08:05PM 22.4265 101.0661 212° Southwest  Level Estimated
08:06PM 22.3519 101.0154 212° Southwest  Level Estimated
08:07PM 22.2773 100.9647 212° Southwest  Level Estimated
08:08PM 22.2026 100.9142 212° Southwest  Level Estimated
08:09PM 22.1280 100.8636 212° Southwest  Level Estimated
08:10PM 22.0533 100.8132 212° Southwest  Level Estimated
08:11PM 21.9786 100.7627 212° Southwest  Level Estimated
08:12PM 21.9739 100.7596 212° Southwest  Level Estimated
08:13PM 21.9739 100.7596 13° North  Level Estimated
08:14PM 21.9739 100.7596 13° North  Level Estimated
08:15PM 21.9739 100.7596 13° North  Level Estimated
08:16PM 21.9739 100.7596 13° North  Level Estimated
08:17PM 21.9739 100.7596 13° North  Level Estimated
08:18PM 21.9739 100.7596 13° North  Level Estimated